sensor_id;sensor_type;location;lat;lon;timestamp;temperature;humidity
37240;DHT22;23130;48.760;9.178;2023-09-08T00:00:01;17.10;99.90
37240;DHT22;23130;48.760;9.178;2023-09-08T00:02:28;17.30;99.90
37240;DHT22;23130;48.760;9.178;2023-09-08T00:04:54;17.20;99.90
37240;DHT22;23130;48.760;9.178;2023-09-08T00:07:20;17.10;99.90
37240;DHT22;23130;48.760;9.178;2023-09-08T00:09:45;16.90;99.90
37240;DHT22;23130;48.760;9.178;2023-09-08T00:12:11;16.80;99.90
37240;DHT22;23130;48.760;9.178;2023-09-08T00:14:37;16.70;99.90
37240;DHT22;23130;48.760;9.178;2023-09-08T00:17:03;16.70;99.90
37240;DHT22;23130;48.760;9.178;2023-09-08T00:19:29;16.90;99.90
37240;DHT22;23130;48.760;9.178;2023-09-08T00:21:56;16.90;99.90
37240;DHT22;23130;48.760;9.178;2023-09-08T00:24:21;17.00;99.90
37240;DHT22;23130;48.760;9.178;2023-09-08T00:26:47;17.00;99.90
37240;DHT22;23130;48.760;9.178;2023-09-08T00:29:12;17.00;99.90
37240;DHT22;23130;48.760;9.178;2023-09-08T00:31:38;17.10;99.90
37240;DHT22;23130;48.760;9.178;2023-09-08T00:34:03;17.20;99.90
37240;DHT22;23130;48.760;9.178;2023-09-08T00:36:29;17.20;99.90
37240;DHT22;23130;48.760;9.178;2023-09-08T00:38:54;17.10;99.90
37240;DHT22;23130;48.760;9.178;2023-09-08T00:41:20;17.00;99.90
37240;DHT22;23130;48.760;9.178;2023-09-08T00:43:45;16.80;99.90
37240;DHT22;23130;48.760;9.178;2023-09-08T00:46:11;16.70;99.90
37240;DHT22;23130;48.760;9.178;2023-09-08T00:48:37;16.60;99.90
37240;DHT22;23130;48.760;9.178;2023-09-08T00:51:03;16.60;99.90
37240;DHT22;23130;48.760;9.178;2023-09-08T00:53:30;16.50;99.90
37240;DHT22;23130;48.760;9.178;2023-09-08T00:55:56;16.30;99.90
37240;DHT22;23130;48.760;9.178;2023-09-08T00:58:21;16.30;99.90
37240;DHT22;23130;48.760;9.178;2023-09-08T01:00:47;16.30;99.90
37240;DHT22;23130;48.760;9.178;2023-09-08T01:03:12;16.20;99.90
37240;DHT22;23130;48.760;9.178;2023-09-08T01:05:38;16.10;99.90
37240;DHT22;23130;48.760;9.178;2023-09-08T01:08:04;16.10;99.90
37240;DHT22;23130;48.760;9.178;2023-09-08T01:10:30;16.00;99.90
37240;DHT22;23130;48.760;9.178;2023-09-08T01:12:56;16.00;99.90
37240;DHT22;23130;48.760;9.178;2023-09-08T01:15:21;15.90;99.90
37240;DHT22;23130;48.760;9.178;2023-09-08T01:17:47;16.00;99.90
37240;DHT22;23130;48.760;9.178;2023-09-08T01:25:25;15.90;99.90
37240;DHT22;23130;48.760;9.178;2023-09-08T01:27:52;15.90;99.90
37240;DHT22;23130;48.760;9.178;2023-09-08T01:30:17;15.80;99.90
37240;DHT22;23130;48.760;9.178;2023-09-08T01:32:43;15.70;99.90
37240;DHT22;23130;48.760;9.178;2023-09-08T01:35:10;15.60;99.90
37240;DHT22;23130;48.760;9.178;2023-09-08T01:37:39;15.60;99.90
37240;DHT22;23130;48.760;9.178;2023-09-08T01:40:04;15.50;99.90
37240;DHT22;23130;48.760;9.178;2023-09-08T01:42:30;15.40;99.90
37240;DHT22;23130;48.760;9.178;2023-09-08T01:44:56;15.50;99.90
37240;DHT22;23130;48.760;9.178;2023-09-08T01:47:21;15.50;99.90
37240;DHT22;23130;48.760;9.178;2023-09-08T01:49:47;15.60;99.90
37240;DHT22;23130;48.760;9.178;2023-09-08T01:52:13;15.60;99.90
37240;DHT22;23130;48.760;9.178;2023-09-08T01:54:40;15.60;99.90
37240;DHT22;23130;48.760;9.178;2023-09-08T01:57:05;15.60;99.90
37240;DHT22;23130;48.760;9.178;2023-09-08T01:59:32;15.60;99.90
37240;DHT22;23130;48.760;9.178;2023-09-08T02:01:57;15.50;99.90
37240;DHT22;23130;48.760;9.178;2023-09-08T02:04:23;15.50;99.90
37240;DHT22;23130;48.760;9.178;2023-09-08T02:06:48;15.40;99.90
37240;DHT22;23130;48.760;9.178;2023-09-08T02:09:14;15.40;99.90
37240;DHT22;23130;48.760;9.178;2023-09-08T02:11:39;15.40;99.90
37240;DHT22;23130;48.760;9.178;2023-09-08T02:14:05;15.40;99.90
37240;DHT22;23130;48.760;9.178;2023-09-08T02:16:30;15.40;99.90
37240;DHT22;23130;48.760;9.178;2023-09-08T02:18:57;15.30;99.90
37240;DHT22;23130;48.760;9.178;2023-09-08T02:21:22;15.30;99.90
37240;DHT22;23130;48.760;9.178;2023-09-08T02:23:48;15.30;99.90
37240;DHT22;23130;48.760;9.178;2023-09-08T02:26:13;15.20;99.90
37240;DHT22;23130;48.760;9.178;2023-09-08T02:28:39;15.20;99.90
37240;DHT22;23130;48.760;9.178;2023-09-08T02:31:07;15.10;99.90
37240;DHT22;23130;48.760;9.178;2023-09-08T02:33:32;15.10;99.90
37240;DHT22;23130;48.760;9.178;2023-09-08T02:36:01;15.00;99.90
37240;DHT22;23130;48.760;9.178;2023-09-08T02:38:28;15.00;99.90
37240;DHT22;23130;48.760;9.178;2023-09-08T02:40:53;15.10;99.90
37240;DHT22;23130;48.760;9.178;2023-09-08T02:43:19;15.00;99.90
37240;DHT22;23130;48.760;9.178;2023-09-08T02:45:46;15.10;99.90
37240;DHT22;23130;48.760;9.178;2023-09-08T02:48:12;15.10;99.90
37240;DHT22;23130;48.760;9.178;2023-09-08T02:50:39;15.10;99.90
37240;DHT22;23130;48.760;9.178;2023-09-08T02:53:06;15.20;99.90
37240;DHT22;23130;48.760;9.178;2023-09-08T02:55:32;15.30;99.90
37240;DHT22;23130;48.760;9.178;2023-09-08T02:57:58;15.50;99.90
37240;DHT22;23130;48.760;9.178;2023-09-08T03:00:26;15.50;99.90
37240;DHT22;23130;48.760;9.178;2023-09-08T03:02:53;15.40;99.90
37240;DHT22;23130;48.760;9.178;2023-09-08T03:05:18;15.40;99.90
37240;DHT22;23130;48.760;9.178;2023-09-08T03:07:49;15.30;99.90
37240;DHT22;23130;48.760;9.178;2023-09-08T03:10:14;15.20;99.90
37240;DHT22;23130;48.760;9.178;2023-09-08T03:12:42;15.20;99.90
37240;DHT22;23130;48.760;9.178;2023-09-08T03:15:10;15.20;99.90
37240;DHT22;23130;48.760;9.178;2023-09-08T03:17:37;15.30;99.90
37240;DHT22;23130;48.760;9.178;2023-09-08T03:20:02;15.30;99.90
37240;DHT22;23130;48.760;9.178;2023-09-08T03:22:32;15.30;99.90
37240;DHT22;23130;48.760;9.178;2023-09-08T03:24:59;15.20;99.90
37240;DHT22;23130;48.760;9.178;2023-09-08T03:27:25;15.10;99.90
37240;DHT22;23130;48.760;9.178;2023-09-08T03:29:52;15.00;99.90
37240;DHT22;23130;48.760;9.178;2023-09-08T03:32:18;14.90;99.90
37240;DHT22;23130;48.760;9.178;2023-09-08T03:34:46;14.80;99.90
37240;DHT22;23130;48.760;9.178;2023-09-08T03:37:12;14.90;99.90
37240;DHT22;23130;48.760;9.178;2023-09-08T03:39:37;14.90;99.90
37240;DHT22;23130;48.760;9.178;2023-09-08T03:42:03;14.90;99.90
37240;DHT22;23130;48.760;9.178;2023-09-08T03:44:30;14.80;99.90
37240;DHT22;23130;48.760;9.178;2023-09-08T03:46:56;14.70;99.90
37240;DHT22;23130;48.760;9.178;2023-09-08T03:49:23;14.70;99.90
37240;DHT22;23130;48.760;9.178;2023-09-08T03:51:50;14.70;99.90
37240;DHT22;23130;48.760;9.178;2023-09-08T03:54:16;14.60;99.90
37240;DHT22;23130;48.760;9.178;2023-09-08T03:56:44;14.60;99.90
37240;DHT22;23130;48.760;9.178;2023-09-08T03:59:09;14.60;99.90
37240;DHT22;23130;48.760;9.178;2023-09-08T04:01:38;14.60;99.90
37240;DHT22;23130;48.760;9.178;2023-09-08T04:04:03;14.50;99.90
37240;DHT22;23130;48.760;9.178;2023-09-08T04:06:30;14.50;99.90
37240;DHT22;23130;48.760;9.178;2023-09-08T04:08:56;14.50;99.90
37240;DHT22;23130;48.760;9.178;2023-09-08T04:11:21;14.40;99.90
37240;DHT22;23130;48.760;9.178;2023-09-08T04:13:48;14.40;99.90
37240;DHT22;23130;48.760;9.178;2023-09-08T04:16:14;14.40;99.90
37240;DHT22;23130;48.760;9.178;2023-09-08T04:18:39;14.40;99.90
37240;DHT22;23130;48.760;9.178;2023-09-08T04:21:08;14.40;99.90
37240;DHT22;23130;48.760;9.178;2023-09-08T04:23:38;14.40;99.90
37240;DHT22;23130;48.760;9.178;2023-09-08T04:26:03;14.60;99.90
37240;DHT22;23130;48.760;9.178;2023-09-08T04:28:29;14.70;99.90
37240;DHT22;23130;48.760;9.178;2023-09-08T04:30:54;14.70;99.90
37240;DHT22;23130;48.760;9.178;2023-09-08T04:33:20;14.80;99.90
37240;DHT22;23130;48.760;9.178;2023-09-08T04:35:45;14.80;99.90
37240;DHT22;23130;48.760;9.178;2023-09-08T04:38:11;14.70;99.90
37240;DHT22;23130;48.760;9.178;2023-09-08T04:40:40;14.60;99.90
37240;DHT22;23130;48.760;9.178;2023-09-08T04:43:07;14.40;99.90
37240;DHT22;23130;48.760;9.178;2023-09-08T04:45:35;14.30;99.90
37240;DHT22;23130;48.760;9.178;2023-09-08T04:48:02;14.30;99.90
37240;DHT22;23130;48.760;9.178;2023-09-08T04:50:30;14.20;99.90
37240;DHT22;23130;48.760;9.178;2023-09-08T04:52:56;14.20;99.90
37240;DHT22;23130;48.760;9.178;2023-09-08T04:55:21;14.10;99.90
37240;DHT22;23130;48.760;9.178;2023-09-08T04:57:48;14.10;99.90
37240;DHT22;23130;48.760;9.178;2023-09-08T05:00:15;14.10;99.90
37240;DHT22;23130;48.760;9.178;2023-09-08T05:02:41;14.20;99.90
37240;DHT22;23130;48.760;9.178;2023-09-08T05:05:06;14.20;99.90
37240;DHT22;23130;48.760;9.178;2023-09-08T05:07:32;14.20;99.90
37240;DHT22;23130;48.760;9.178;2023-09-08T05:09:58;14.20;99.90
37240;DHT22;23130;48.760;9.178;2023-09-08T05:12:23;14.30;99.90
37240;DHT22;23130;48.760;9.178;2023-09-08T05:14:49;14.30;99.90
37240;DHT22;23130;48.760;9.178;2023-09-08T05:17:23;14.30;99.90
37240;DHT22;23130;48.760;9.178;2023-09-08T05:19:50;14.40;99.90
37240;DHT22;23130;48.760;9.178;2023-09-08T05:22:17;14.40;99.90
37240;DHT22;23130;48.760;9.178;2023-09-08T05:24:42;14.50;99.90
37240;DHT22;23130;48.760;9.178;2023-09-08T05:27:08;14.50;99.90
37240;DHT22;23130;48.760;9.178;2023-09-08T05:29:33;14.60;99.90
37240;DHT22;23130;48.760;9.178;2023-09-08T05:32:00;14.60;99.90
37240;DHT22;23130;48.760;9.178;2023-09-08T05:34:27;14.60;99.90
37240;DHT22;23130;48.760;9.178;2023-09-08T05:36:54;14.70;99.90
37240;DHT22;23130;48.760;9.178;2023-09-08T05:39:20;14.80;99.90
37240;DHT22;23130;48.760;9.178;2023-09-08T05:41:45;14.80;99.90
37240;DHT22;23130;48.760;9.178;2023-09-08T05:44:11;14.90;99.90
37240;DHT22;23130;48.760;9.178;2023-09-08T05:46:37;15.00;99.90
37240;DHT22;23130;48.760;9.178;2023-09-08T05:49:02;15.20;99.90
37240;DHT22;23130;48.760;9.178;2023-09-08T05:51:28;15.80;99.90
37240;DHT22;23130;48.760;9.178;2023-09-08T05:53:54;17.10;99.90
37240;DHT22;23130;48.760;9.178;2023-09-08T05:56:20;18.50;99.90
37240;DHT22;23130;48.760;9.178;2023-09-08T05:58:48;19.80;99.90
37240;DHT22;23130;48.760;9.178;2023-09-08T06:01:15;20.60;99.90
37240;DHT22;23130;48.760;9.178;2023-09-08T06:03:41;21.60;99.90
37240;DHT22;23130;48.760;9.178;2023-09-08T06:06:09;22.50;99.90
37240;DHT22;23130;48.760;9.178;2023-09-08T06:08:36;23.20;99.90
37240;DHT22;23130;48.760;9.178;2023-09-08T06:11:01;23.40;99.90
37240;DHT22;23130;48.760;9.178;2023-09-08T06:13:27;23.60;99.90
37240;DHT22;23130;48.760;9.178;2023-09-08T06:15:53;24.00;99.90
37240;DHT22;23130;48.760;9.178;2023-09-08T06:18:18;24.20;99.90
37240;DHT22;23130;48.760;9.178;2023-09-08T06:20:46;24.20;99.90
37240;DHT22;23130;48.760;9.178;2023-09-08T06:23:13;24.30;99.90
37240;DHT22;23130;48.760;9.178;2023-09-08T06:25:39;24.40;99.90
37240;DHT22;23130;48.760;9.178;2023-09-08T06:28:05;24.90;99.90
37240;DHT22;23130;48.760;9.178;2023-09-08T06:30:31;25.00;99.90
37240;DHT22;23130;48.760;9.178;2023-09-08T06:32:56;24.70;99.90
37240;DHT22;23130;48.760;9.178;2023-09-08T06:35:22;24.60;99.90
37240;DHT22;23130;48.760;9.178;2023-09-08T06:37:49;24.50;99.90
37240;DHT22;23130;48.760;9.178;2023-09-08T06:40:14;24.90;99.90
37240;DHT22;23130;48.760;9.178;2023-09-08T06:42:40;25.10;99.90
37240;DHT22;23130;48.760;9.178;2023-09-08T06:45:06;25.90;99.90
37240;DHT22;23130;48.760;9.178;2023-09-08T06:47:32;26.20;99.90
37240;DHT22;23130;48.760;9.178;2023-09-08T06:49:57;25.70;99.90
37240;DHT22;23130;48.760;9.178;2023-09-08T06:52:24;24.80;99.90
37240;DHT22;23130;48.760;9.178;2023-09-08T06:54:51;24.20;99.90
37240;DHT22;23130;48.760;9.178;2023-09-08T06:57:20;23.40;99.90
37240;DHT22;23130;48.760;9.178;2023-09-08T06:59:46;22.80;99.90
37240;DHT22;23130;48.760;9.178;2023-09-08T07:02:11;22.60;99.90
37240;DHT22;23130;48.760;9.178;2023-09-08T07:04:37;23.20;99.90
37240;DHT22;23130;48.760;9.178;2023-09-08T07:07:02;24.00;99.90
37240;DHT22;23130;48.760;9.178;2023-09-08T07:09:33;24.70;99.90
37240;DHT22;23130;48.760;9.178;2023-09-08T07:11:59;25.20;99.90
37240;DHT22;23130;48.760;9.178;2023-09-08T07:14:26;25.50;99.90
37240;DHT22;23130;48.760;9.178;2023-09-08T07:16:53;25.70;99.90
37240;DHT22;23130;48.760;9.178;2023-09-08T07:19:19;25.80;99.90
37240;DHT22;23130;48.760;9.178;2023-09-08T07:21:44;26.10;99.90
37240;DHT22;23130;48.760;9.178;2023-09-08T07:24:10;26.10;99.90
37240;DHT22;23130;48.760;9.178;2023-09-08T07:26:35;26.00;99.90
37240;DHT22;23130;48.760;9.178;2023-09-08T07:29:01;26.00;99.90
37240;DHT22;23130;48.760;9.178;2023-09-08T07:31:26;25.70;99.90
37240;DHT22;23130;48.760;9.178;2023-09-08T07:33:52;25.00;99.90
37240;DHT22;23130;48.760;9.178;2023-09-08T07:36:17;24.50;99.90
37240;DHT22;23130;48.760;9.178;2023-09-08T07:38:43;24.00;99.90
37240;DHT22;23130;48.760;9.178;2023-09-08T07:41:08;23.40;99.90
37240;DHT22;23130;48.760;9.178;2023-09-08T07:43:34;22.80;99.90
37240;DHT22;23130;48.760;9.178;2023-09-08T07:46:03;22.40;99.90
37240;DHT22;23130;48.760;9.178;2023-09-08T07:48:28;22.10;99.90
37240;DHT22;23130;48.760;9.178;2023-09-08T07:50:54;21.70;99.90
37240;DHT22;23130;48.760;9.178;2023-09-08T07:53:20;21.60;99.90
37240;DHT22;23130;48.760;9.178;2023-09-08T07:55:45;21.50;99.90
37240;DHT22;23130;48.760;9.178;2023-09-08T07:58:12;21.40;99.90
37240;DHT22;23130;48.760;9.178;2023-09-08T08:00:38;21.40;99.90
37240;DHT22;23130;48.760;9.178;2023-09-08T08:03:03;21.40;99.90
37240;DHT22;23130;48.760;9.178;2023-09-08T08:05:30;21.40;99.90
37240;DHT22;23130;48.760;9.178;2023-09-08T08:07:56;21.40;99.90
37240;DHT22;23130;48.760;9.178;2023-09-08T08:10:21;21.50;99.90
37240;DHT22;23130;48.760;9.178;2023-09-08T08:12:47;21.50;99.90
37240;DHT22;23130;48.760;9.178;2023-09-08T08:15:12;21.50;99.90
37240;DHT22;23130;48.760;9.178;2023-09-08T08:17:39;21.50;99.90
37240;DHT22;23130;48.760;9.178;2023-09-08T08:20:06;21.60;99.90
37240;DHT22;23130;48.760;9.178;2023-09-08T08:22:34;21.70;99.90
37240;DHT22;23130;48.760;9.178;2023-09-08T08:25:00;21.80;99.90
37240;DHT22;23130;48.760;9.178;2023-09-08T08:27:25;21.90;99.90
37240;DHT22;23130;48.760;9.178;2023-09-08T08:29:51;22.00;99.90
37240;DHT22;23130;48.760;9.178;2023-09-08T08:32:17;22.00;99.90
37240;DHT22;23130;48.760;9.178;2023-09-08T08:34:43;22.10;99.90
37240;DHT22;23130;48.760;9.178;2023-09-08T08:37:10;22.20;99.90
37240;DHT22;23130;48.760;9.178;2023-09-08T08:39:36;22.30;99.90
37240;DHT22;23130;48.760;9.178;2023-09-08T08:42:08;22.40;99.90
37240;DHT22;23130;48.760;9.178;2023-09-08T08:44:35;22.40;99.90
37240;DHT22;23130;48.760;9.178;2023-09-08T08:47:03;22.50;99.90
37240;DHT22;23130;48.760;9.178;2023-09-08T08:49:31;22.50;99.90
37240;DHT22;23130;48.760;9.178;2023-09-08T08:51:58;22.60;99.90
37240;DHT22;23130;48.760;9.178;2023-09-08T08:54:24;22.80;99.90
37240;DHT22;23130;48.760;9.178;2023-09-08T08:56:50;22.90;99.90
37240;DHT22;23130;48.760;9.178;2023-09-08T08:59:16;22.90;99.90
37240;DHT22;23130;48.760;9.178;2023-09-08T09:01:43;23.00;99.90
37240;DHT22;23130;48.760;9.178;2023-09-08T09:04:10;23.10;99.90
37240;DHT22;23130;48.760;9.178;2023-09-08T09:06:37;23.20;99.90
37240;DHT22;23130;48.760;9.178;2023-09-08T09:09:03;23.30;99.90
37240;DHT22;23130;48.760;9.178;2023-09-08T09:11:35;23.40;99.90
37240;DHT22;23130;48.760;9.178;2023-09-08T09:14:01;23.50;99.90
37240;DHT22;23130;48.760;9.178;2023-09-08T09:16:26;23.60;99.90
37240;DHT22;23130;48.760;9.178;2023-09-08T09:18:59;23.70;99.90
37240;DHT22;23130;48.760;9.178;2023-09-08T09:21:45;23.70;99.90
37240;DHT22;23130;48.760;9.178;2023-09-08T09:24:17;23.80;99.90
37240;DHT22;23130;48.760;9.178;2023-09-08T09:26:55;23.80;99.90
37240;DHT22;23130;48.760;9.178;2023-09-08T09:29:21;23.90;99.90
37240;DHT22;23130;48.760;9.178;2023-09-08T09:32:05;24.10;99.90
37240;DHT22;23130;48.760;9.178;2023-09-08T09:34:31;24.20;99.90
37240;DHT22;23130;48.760;9.178;2023-09-08T09:36:57;24.20;99.90
37240;DHT22;23130;48.760;9.178;2023-09-08T09:39:26;24.30;99.90
37240;DHT22;23130;48.760;9.178;2023-09-08T09:41:56;24.40;99.90
37240;DHT22;23130;48.760;9.178;2023-09-08T09:44:22;24.50;99.90
37240;DHT22;23130;48.760;9.178;2023-09-08T09:46:51;24.50;99.90
37240;DHT22;23130;48.760;9.178;2023-09-08T09:49:17;24.60;99.90
37240;DHT22;23130;48.760;9.178;2023-09-08T09:51:47;24.60;99.90
37240;DHT22;23130;48.760;9.178;2023-09-08T09:54:14;24.60;99.90
37240;DHT22;23130;48.760;9.178;2023-09-08T09:56:41;24.60;99.90
37240;DHT22;23130;48.760;9.178;2023-09-08T09:59:10;24.70;99.90
37240;DHT22;23130;48.760;9.178;2023-09-08T10:01:37;24.80;99.90
37240;DHT22;23130;48.760;9.178;2023-09-08T10:04:03;25.00;99.90
37240;DHT22;23130;48.760;9.178;2023-09-08T10:06:37;25.00;99.90
37240;DHT22;23130;48.760;9.178;2023-09-08T10:09:05;25.20;99.90
37240;DHT22;23130;48.760;9.178;2023-09-08T10:12:03;25.30;99.90
37240;DHT22;23130;48.760;9.178;2023-09-08T10:14:30;25.30;99.90
37240;DHT22;23130;48.760;9.178;2023-09-08T10:16:59;25.40;99.90
37240;DHT22;23130;48.760;9.178;2023-09-08T10:19:25;25.30;99.90
37240;DHT22;23130;48.760;9.178;2023-09-08T10:21:53;25.40;99.90
37240;DHT22;23130;48.760;9.178;2023-09-08T10:24:24;25.40;99.90
37240;DHT22;23130;48.760;9.178;2023-09-08T10:26:56;25.50;99.90
37240;DHT22;23130;48.760;9.178;2023-09-08T10:29:25;25.60;99.90
37240;DHT22;23130;48.760;9.178;2023-09-08T10:31:53;25.60;99.90
37240;DHT22;23130;48.760;9.178;2023-09-08T10:34:19;25.70;99.90
37240;DHT22;23130;48.760;9.178;2023-09-08T10:36:45;25.80;99.90
37240;DHT22;23130;48.760;9.178;2023-09-08T10:47:14;26.10;99.90
37240;DHT22;23130;48.760;9.178;2023-09-08T10:49:40;26.10;99.90
37240;DHT22;23130;48.760;9.178;2023-09-08T10:52:10;26.10;99.90
37240;DHT22;23130;48.760;9.178;2023-09-08T10:54:48;26.20;99.90
37240;DHT22;23130;48.760;9.178;2023-09-08T10:57:18;26.30;99.90
37240;DHT22;23130;48.760;9.178;2023-09-08T10:59:55;26.40;99.90
37240;DHT22;23130;48.760;9.178;2023-09-08T11:02:49;26.40;99.90
37240;DHT22;23130;48.760;9.178;2023-09-08T11:05:20;26.40;99.90
37240;DHT22;23130;48.760;9.178;2023-09-08T11:07:48;26.50;99.90
37240;DHT22;23130;48.760;9.178;2023-09-08T11:10:18;26.60;99.90
37240;DHT22;23130;48.760;9.178;2023-09-08T11:12:43;26.60;99.90
37240;DHT22;23130;48.760;9.178;2023-09-08T11:15:09;26.60;99.90
37240;DHT22;23130;48.760;9.178;2023-09-08T11:17:36;26.60;99.90
37240;DHT22;23130;48.760;9.178;2023-09-08T11:20:05;26.70;99.90
37240;DHT22;23130;48.760;9.178;2023-09-08T11:22:34;26.80;99.90
37240;DHT22;23130;48.760;9.178;2023-09-08T11:25:01;26.80;99.90
37240;DHT22;23130;48.760;9.178;2023-09-08T11:27:30;26.80;99.90
37240;DHT22;23130;48.760;9.178;2023-09-08T11:29:57;26.80;99.90
37240;DHT22;23130;48.760;9.178;2023-09-08T11:32:23;26.80;99.90
37240;DHT22;23130;48.760;9.178;2023-09-08T11:34:49;26.90;99.90
37240;DHT22;23130;48.760;9.178;2023-09-08T11:37:17;27.00;99.90
37240;DHT22;23130;48.760;9.178;2023-09-08T11:39:44;27.00;99.90
37240;DHT22;23130;48.760;9.178;2023-09-08T11:42:13;27.10;99.90
37240;DHT22;23130;48.760;9.178;2023-09-08T11:44:39;27.10;99.90
37240;DHT22;23130;48.760;9.178;2023-09-08T11:47:09;27.10;99.90
37240;DHT22;23130;48.760;9.178;2023-09-08T11:49:41;27.10;99.90
37240;DHT22;23130;48.760;9.178;2023-09-08T11:52:07;27.20;99.90
37240;DHT22;23130;48.760;9.178;2023-09-08T11:54:35;27.20;99.90
37240;DHT22;23130;48.760;9.178;2023-09-08T11:57:02;27.30;99.90
37240;DHT22;23130;48.760;9.178;2023-09-08T11:59:30;27.40;99.90
37240;DHT22;23130;48.760;9.178;2023-09-08T12:01:57;27.40;99.90
37240;DHT22;23130;48.760;9.178;2023-09-08T12:04:23;27.40;99.90
37240;DHT22;23130;48.760;9.178;2023-09-08T12:06:50;27.40;99.90
37240;DHT22;23130;48.760;9.178;2023-09-08T12:09:16;27.30;99.90
37240;DHT22;23130;48.760;9.178;2023-09-08T12:11:43;27.30;99.90
37240;DHT22;23130;48.760;9.178;2023-09-08T12:14:11;27.40;99.90
37240;DHT22;23130;48.760;9.178;2023-09-08T12:16:38;27.50;99.90
37240;DHT22;23130;48.760;9.178;2023-09-08T12:19:03;27.50;99.90
37240;DHT22;23130;48.760;9.178;2023-09-08T12:21:29;27.60;99.90
37240;DHT22;23130;48.760;9.178;2023-09-08T12:23:57;27.70;99.90
37240;DHT22;23130;48.760;9.178;2023-09-08T12:26:27;27.70;99.90
37240;DHT22;23130;48.760;9.178;2023-09-08T12:28:52;27.80;99.90
37240;DHT22;23130;48.760;9.178;2023-09-08T12:31:18;27.70;99.90
37240;DHT22;23130;48.760;9.178;2023-09-08T12:33:44;27.80;99.90
37240;DHT22;23130;48.760;9.178;2023-09-08T12:36:12;27.80;99.90
37240;DHT22;23130;48.760;9.178;2023-09-08T12:38:38;27.90;99.90
37240;DHT22;23130;48.760;9.178;2023-09-08T12:41:03;27.80;99.90
37240;DHT22;23130;48.760;9.178;2023-09-08T12:43:29;27.80;99.90
37240;DHT22;23130;48.760;9.178;2023-09-08T12:45:55;27.80;99.90
37240;DHT22;23130;48.760;9.178;2023-09-08T12:48:22;27.80;99.90
37240;DHT22;23130;48.760;9.178;2023-09-08T12:50:48;27.80;99.90
37240;DHT22;23130;48.760;9.178;2023-09-08T12:53:14;27.90;99.90
37240;DHT22;23130;48.760;9.178;2023-09-08T12:55:40;27.80;99.90
37240;DHT22;23130;48.760;9.178;2023-09-08T12:58:05;27.80;99.90
37240;DHT22;23130;48.760;9.178;2023-09-08T13:00:31;27.70;99.90
37240;DHT22;23130;48.760;9.178;2023-09-08T13:02:58;27.80;99.90
37240;DHT22;23130;48.760;9.178;2023-09-08T13:05:23;27.70;99.90
37240;DHT22;23130;48.760;9.178;2023-09-08T13:07:49;27.60;99.90
37240;DHT22;23130;48.760;9.178;2023-09-08T13:10:15;27.70;99.90
37240;DHT22;23130;48.760;9.178;2023-09-08T13:12:41;27.80;99.90
37240;DHT22;23130;48.760;9.178;2023-09-08T13:15:08;27.80;99.90
37240;DHT22;23130;48.760;9.178;2023-09-08T13:17:33;27.90;99.90
37240;DHT22;23130;48.760;9.178;2023-09-08T13:20:01;27.90;99.90
37240;DHT22;23130;48.760;9.178;2023-09-08T13:22:26;27.90;99.90
37240;DHT22;23130;48.760;9.178;2023-09-08T13:24:52;27.90;99.90
37240;DHT22;23130;48.760;9.178;2023-09-08T13:27:18;27.90;99.90
37240;DHT22;23130;48.760;9.178;2023-09-08T13:29:44;27.90;99.90
37240;DHT22;23130;48.760;9.178;2023-09-08T13:32:09;27.90;99.90
37240;DHT22;23130;48.760;9.178;2023-09-08T13:34:35;27.80;99.90
37240;DHT22;23130;48.760;9.178;2023-09-08T13:37:01;27.90;99.90
37240;DHT22;23130;48.760;9.178;2023-09-08T13:39:28;27.90;99.90
37240;DHT22;23130;48.760;9.178;2023-09-08T13:41:54;27.90;99.90
37240;DHT22;23130;48.760;9.178;2023-09-08T13:44:23;28.00;99.90
37240;DHT22;23130;48.760;9.178;2023-09-08T13:46:50;28.00;99.90
37240;DHT22;23130;48.760;9.178;2023-09-08T13:49:16;27.90;99.90
37240;DHT22;23130;48.760;9.178;2023-09-08T13:51:42;27.90;99.90
37240;DHT22;23130;48.760;9.178;2023-09-08T13:54:08;27.80;99.90
37240;DHT22;23130;48.760;9.178;2023-09-08T13:56:34;27.80;99.90
37240;DHT22;23130;48.760;9.178;2023-09-08T13:59:02;27.90;99.90
37240;DHT22;23130;48.760;9.178;2023-09-08T14:01:28;27.90;99.90
37240;DHT22;23130;48.760;9.178;2023-09-08T14:03:55;28.00;99.90
37240;DHT22;23130;48.760;9.178;2023-09-08T14:06:24;28.00;99.90
37240;DHT22;23130;48.760;9.178;2023-09-08T14:08:50;27.90;99.90
37240;DHT22;23130;48.760;9.178;2023-09-08T14:11:17;28.00;99.90
37240;DHT22;23130;48.760;9.178;2023-09-08T14:13:43;28.00;99.90
37240;DHT22;23130;48.760;9.178;2023-09-08T14:16:08;28.00;99.90
37240;DHT22;23130;48.760;9.178;2023-09-08T14:18:34;28.00;99.90
37240;DHT22;23130;48.760;9.178;2023-09-08T14:21:00;28.00;99.90
37240;DHT22;23130;48.760;9.178;2023-09-08T14:23:25;27.90;99.90
37240;DHT22;23130;48.760;9.178;2023-09-08T14:25:51;27.90;99.90
37240;DHT22;23130;48.760;9.178;2023-09-08T14:28:17;27.90;99.90
37240;DHT22;23130;48.760;9.178;2023-09-08T14:30:43;27.90;99.90
37240;DHT22;23130;48.760;9.178;2023-09-08T14:33:10;28.00;99.90
37240;DHT22;23130;48.760;9.178;2023-09-08T14:35:40;28.00;99.90
37240;DHT22;23130;48.760;9.178;2023-09-08T14:38:06;28.00;99.90
37240;DHT22;23130;48.760;9.178;2023-09-08T14:40:31;28.10;99.90
37240;DHT22;23130;48.760;9.178;2023-09-08T14:42:57;28.00;99.90
37240;DHT22;23130;48.760;9.178;2023-09-08T14:45:22;28.00;99.90
37240;DHT22;23130;48.760;9.178;2023-09-08T14:47:48;28.10;99.90
37240;DHT22;23130;48.760;9.178;2023-09-08T14:50:13;28.00;99.90
37240;DHT22;23130;48.760;9.178;2023-09-08T14:52:39;28.10;99.90
37240;DHT22;23130;48.760;9.178;2023-09-08T14:55:06;28.10;99.90
37240;DHT22;23130;48.760;9.178;2023-09-08T14:57:33;28.10;99.90
37240;DHT22;23130;48.760;9.178;2023-09-08T14:59:58;28.10;99.90
37240;DHT22;23130;48.760;9.178;2023-09-08T15:02:24;28.10;99.90
37240;DHT22;23130;48.760;9.178;2023-09-08T15:04:49;28.00;99.90
37240;DHT22;23130;48.760;9.178;2023-09-08T15:07:15;27.90;99.90
37240;DHT22;23130;48.760;9.178;2023-09-08T15:09:40;27.90;99.90
37240;DHT22;23130;48.760;9.178;2023-09-08T15:12:06;27.80;99.90
37240;DHT22;23130;48.760;9.178;2023-09-08T15:14:31;27.80;99.90
37240;DHT22;23130;48.760;9.178;2023-09-08T15:16:57;27.70;99.90
37240;DHT22;23130;48.760;9.178;2023-09-08T15:19:23;27.70;99.90
37240;DHT22;23130;48.760;9.178;2023-09-08T15:21:48;27.60;99.90
37240;DHT22;23130;48.760;9.178;2023-09-08T15:24:14;27.60;99.90
37240;DHT22;23130;48.760;9.178;2023-09-08T15:26:41;27.60;99.90
37240;DHT22;23130;48.760;9.178;2023-09-08T15:29:07;27.50;99.90
37240;DHT22;23130;48.760;9.178;2023-09-08T15:31:33;27.60;99.90
37240;DHT22;23130;48.760;9.178;2023-09-08T15:33:59;27.60;99.90
37240;DHT22;23130;48.760;9.178;2023-09-08T15:36:24;27.60;99.90
37240;DHT22;23130;48.760;9.178;2023-09-08T15:38:50;27.60;99.90